Time;durP1;ratioP1;P1;durP2;ratioP2;P2;SDS_P1;SDS_P2;PMS_P1;PMS_P2;Temp;Humidity;BMP_temperature;BMP_pressure;BME280_temperature;BME280_humidity;BME280_pressure;Samples;Min_cycle;Max_cycle;Signal;HPM_P1;HPM_P2
2022/12/12 00:01:58;;;;;;;42.13;18.45;;;;;;;;;;5004797;28;20395;-42
2022/12/12 00:04:24;;;;;;;51.13;21.60;;;;;;;;;;5002479;28;20189;-42
2022/12/12 00:06:49;;;;;;;43.35;21.08;;;;;;;;;;5003597;28;20522;-42
2022/12/12 00:09:15;;;;;;;43.63;21.43;;;;;;;;;;4999147;28;20263;-42
2022/12/12 00:11:41;;;;;;;48.57;22.47;;;;;;;;;;5004306;28;20411;-42
2022/12/12 00:14:07;;;;;;;54.67;21.70;;;;;;;;;;5003202;28;20971;-42
2022/12/12 00:16:33;;;;;;;54.33;23.00;;;;;;;;;;5000518;28;20487;-42
2022/12/12 00:18:59;;;;;;;45.13;21.83;;;;;;;;;;5003722;28;20400;-42
2022/12/12 00:21:27;;;;;;;42.43;22.37;;;;;;;;;;5001864;28;20403;-42
2022/12/12 00:23:53;;;;;;;45.75;22.85;;;;;;;;;;5002073;28;20408;-42
2022/12/12 00:26:21;;;;;;;44.53;22.73;;;;;;;;;;5001238;28;20236;-42
2022/12/12 00:28:47;;;;;;;49.75;23.25;;;;;;;;;;5006877;28;20212;-42
2022/12/12 00:31:13;;;;;;;44.22;21.02;;;;;;;;;;5002133;28;20180;-42
2022/12/12 00:33:39;;;;;;;60.00;22.63;;;;;;;;;;4998906;28;20185;-42
2022/12/12 00:36:05;;;;;;;41.88;21.23;;;;;;;;;;5001015;28;20559;-42
2022/12/12 00:38:31;;;;;;;40.10;18.15;;;;;;;;;;5001298;28;20253;-42
2022/12/12 00:40:59;;;;;;;46.53;19.63;;;;;;;;;;5009391;28;20252;-42
2022/12/12 00:43:25;;;;;;;38.47;20.30;;;;;;;;;;5001208;28;20545;-42
2022/12/12 00:45:51;;;;;;;45.53;19.70;;;;;;;;;;5004910;28;20254;-42
2022/12/12 00:48:17;;;;;;;41.90;21.40;;;;;;;;;;5000925;28;20661;-42
2022/12/12 00:50:43;;;;;;;42.20;20.02;;;;;;;;;;4996869;28;20404;-42
2022/12/12 00:53:10;;;;;;;45.53;21.15;;;;;;;;;;5004522;28;20185;-43
2022/12/12 00:55:36;;;;;;;45.58;23.35;;;;;;;;;;5001538;28;20720;-42
2022/12/12 00:58:01;;;;;;;41.60;20.80;;;;;;;;;;5004022;28;20181;-42
2022/12/12 01:00:28;;;;;;;43.23;21.83;;;;;;;;;;5001186;28;20570;-42
2022/12/12 01:02:57;;;;;;;44.35;21.23;;;;;;;;;;5003273;28;20483;-42
2022/12/12 01:05:24;;;;;;;50.78;22.15;;;;;;;;;;4999935;28;20702;-42
2022/12/12 01:07:50;;;;;;;42.42;20.65;;;;;;;;;;5001891;28;20657;-42
2022/12/12 01:10:16;;;;;;;42.03;20.98;;;;;;;;;;5003882;28;20207;-42
2022/12/12 01:12:42;;;;;;;37.77;18.20;;;;;;;;;;5000684;28;20221;-43
2022/12/12 01:15:09;;;;;;;44.10;20.80;;;;;;;;;;5002050;28;20454;-42
2022/12/12 01:17:39;;;;;;;42.22;20.63;;;;;;;;;;5000565;28;20824;-43
2022/12/12 01:20:14;;;;;;;43.78;20.02;;;;;;;;;;5001038;28;20195;-42
2022/12/12 01:22:40;;;;;;;47.45;21.77;;;;;;;;;;5001142;28;20175;-41
2022/12/12 01:25:06;;;;;;;38.97;19.33;;;;;;;;;;5005449;28;20192;-43
2022/12/12 01:27:32;;;;;;;37.95;19.27;;;;;;;;;;5003857;28;20765;-42
2022/12/12 01:30:00;;;;;;;31.63;16.80;;;;;;;;;;4998227;28;20183;-42
2022/12/12 01:32:26;;;;;;;34.67;16.50;;;;;;;;;;4998107;28;20456;-42
2022/12/12 01:34:52;;;;;;;32.50;18.50;;;;;;;;;;5002536;28;20615;-43
2022/12/12 01:37:18;;;;;;;35.30;17.60;;;;;;;;;;5003564;28;20168;-42
2022/12/12 01:39:44;;;;;;;38.30;19.00;;;;;;;;;;4999335;28;20400;-42
2022/12/12 01:42:15;;;;;;;30.00;16.45;;;;;;;;;;5003213;28;20400;-42
2022/12/12 01:44:42;;;;;;;35.03;18.48;;;;;;;;;;5002736;28;20728;-42
2022/12/12 01:47:10;;;;;;;33.35;17.33;;;;;;;;;;4997440;28;20184;-43
2022/12/12 01:49:36;;;;;;;33.17;17.02;;;;;;;;;;5003468;28;20183;-42
2022/12/12 01:52:09;;;;;;;38.72;18.60;;;;;;;;;;5001642;28;20169;-42
2022/12/12 01:54:38;;;;;;;32.88;16.85;;;;;;;;;;4999855;28;20196;-41
2022/12/12 01:57:06;;;;;;;34.00;16.92;;;;;;;;;;4998740;28;20184;-42
2022/12/12 01:59:33;;;;;;;37.85;18.80;;;;;;;;;;5001128;28;20182;-41
2022/12/12 02:01:59;;;;;;;33.80;16.45;;;;;;;;;;4999692;28;20189;-42
2022/12/12 02:04:29;;;;;;;38.03;19.05;;;;;;;;;;5007736;28;20238;-42
2022/12/12 02:06:55;;;;;;;38.53;19.70;;;;;;;;;;5003434;28;20248;-41
2022/12/12 02:09:22;;;;;;;39.78;20.63;;;;;;;;;;5004387;28;20173;-41
2022/12/12 02:11:49;;;;;;;35.53;18.80;;;;;;;;;;5005391;28;20176;-42
2022/12/12 02:14:18;;;;;;;38.22;19.00;;;;;;;;;;5003922;28;20231;-43
2022/12/12 02:16:56;;;;;;;41.28;18.85;;;;;;;;;;5004721;28;20211;-41
2022/12/12 02:19:22;;;;;;;41.33;19.73;;;;;;;;;;5007240;28;20173;-41
2022/12/12 02:21:55;;;;;;;34.20;18.50;;;;;;;;;;5008507;28;20239;-42
2022/12/12 02:24:24;;;;;;;39.65;19.50;;;;;;;;;;5004776;28;20412;-41
2022/12/12 02:27:09;;;;;;;45.47;21.73;;;;;;;;;;5000195;28;20200;-43
2022/12/12 02:29:35;;;;;;;37.25;18.95;;;;;;;;;;5007184;28;20215;-41
2022/12/12 02:32:07;;;;;;;42.47;20.70;;;;;;;;;;5005228;28;20205;-42
2022/12/12 02:34:37;;;;;;;35.22;19.63;;;;;;;;;;5003965;28;20864;-42
2022/12/12 02:37:07;;;;;;;36.85;20.80;;;;;;;;;;4995686;28;20543;-42
2022/12/12 02:39:37;;;;;;;41.67;19.00;;;;;;;;;;5005009;28;20176;-42
2022/12/12 02:42:05;;;;;;;43.05;20.85;;;;;;;;;;5002388;28;20173;-42
2022/12/12 02:44:43;;;;;;;36.20;19.63;;;;;;;;;;5003218;28;20185;-42
2022/12/12 02:47:14;;;;;;;42.88;19.52;;;;;;;;;;4997971;28;20216;-42
2022/12/12 02:49:49;;;;;;;36.33;18.60;;;;;;;;;;5008121;28;20177;-41
2022/12/12 02:52:16;;;;;;;39.67;19.67;;;;;;;;;;5003789;28;20180;-42
2022/12/12 02:54:43;;;;;;;41.58;20.05;;;;;;;;;;4999686;28;20709;-42
2022/12/12 02:57:13;;;;;;;34.97;19.33;;;;;;;;;;5006310;28;20322;-41
2022/12/12 02:59:43;;;;;;;35.35;18.80;;;;;;;;;;5004745;28;20179;-42
2022/12/12 03:02:36;;;;;;;36.97;19.80;;;;;;;;;;5006720;28;20176;-42
2022/12/12 03:08:24;;;;;;;40.88;19.17;;;;;;;;;;4995792;28;20677;-42
2022/12/12 03:10:52;;;;;;;34.40;16.80;;;;;;;;;;5004876;28;20208;-41
2022/12/12 03:13:24;;;;;;;44.30;20.15;;;;;;;;;;5006265;28;20219;-42
2022/12/12 03:16:10;;;;;;;35.10;18.92;;;;;;;;;;5003174;28;20219;-41
2022/12/12 03:18:52;;;;;;;33.20;19.60;;;;;;;;;;5002453;28;20185;-42
2022/12/12 03:21:24;;;;;;;36.72;18.30;;;;;;;;;;5003727;28;20670;-41
2022/12/12 03:23:52;;;;;;;42.92;18.45;;;;;;;;;;5004238;28;20180;-42
2022/12/12 03:29:26;;;;;;;39.28;18.35;;;;;;;;;;4999315;28;20612;-41
2022/12/12 03:31:54;;;;;;;35.22;17.70;;;;;;;;;;5007388;28;20177;-41
2022/12/12 03:34:24;;;;;;;37.22;21.52;;;;;;;;;;5003758;28;20181;-42
2022/12/12 03:36:50;;;;;;;41.75;20.75;;;;;;;;;;4999159;28;20239;-42
2022/12/12 03:39:23;;;;;;;39.40;20.50;;;;;;;;;;4995041;28;20549;-41
2022/12/12 03:41:56;;;;;;;42.10;17.90;;;;;;;;;;4994071;28;20404;-42
2022/12/12 03:44:28;;;;;;;33.08;18.85;;;;;;;;;;5002144;28;20165;-42
2022/12/12 03:46:56;;;;;;;34.28;18.77;;;;;;;;;;5004636;28;20276;-41
2022/12/12 03:49:32;;;;;;;37.38;18.73;;;;;;;;;;5003038;28;20512;-42
2022/12/12 03:52:01;;;;;;;36.47;18.90;;;;;;;;;;5003639;28;20561;-44
2022/12/12 03:54:33;;;;;;;35.20;19.80;;;;;;;;;;5001943;28;20200;-42
2022/12/12 03:57:08;;;;;;;34.55;17.42;;;;;;;;;;5008026;28;20215;-41
2022/12/12 03:59:37;;;;;;;39.40;19.60;;;;;;;;;;5006730;28;20182;-41
2022/12/12 04:02:18;;;;;;;34.83;17.85;;;;;;;;;;4993381;28;20175;-42
2022/12/12 04:04:47;;;;;;;36.40;18.30;;;;;;;;;;4998699;28;20275;-43
2022/12/12 04:07:20;;;;;;;36.00;18.67;;;;;;;;;;4999814;28;20185;-42
2022/12/12 04:15:34;;;;;;;41.45;19.13;;;;;;;;;;4996362;28;20267;-42
2022/12/12 04:18:15;;;;;;;30.48;16.70;;;;;;;;;;5003267;28;20171;-42
2022/12/12 04:23:37;;;;;;;35.72;18.50;;;;;;;;;;5001695;28;20228;-42
2022/12/12 04:28:59;;;;;;;38.60;18.40;;;;;;;;;;5003566;28;20188;-42
2022/12/12 04:31:27;;;;;;;30.13;16.33;;;;;;;;;;5001635;28;20181;-42
2022/12/12 04:33:55;;;;;;;38.38;18.38;;;;;;;;;;5002250;28;20670;-42
2022/12/12 04:36:22;;;;;;;37.35;16.98;;;;;;;;;;5004100;28;20208;-42
2022/12/12 04:38:49;;;;;;;35.45;19.77;;;;;;;;;;5002892;28;20181;-42
2022/12/12 04:41:16;;;;;;;37.97;19.13;;;;;;;;;;5003571;28;20194;-42
2022/12/12 04:43:43;;;;;;;31.23;17.10;;;;;;;;;;4999997;28;20597;-42
2022/12/12 04:46:13;;;;;;;28.38;17.45;;;;;;;;;;5001613;28;20200;-42
2022/12/12 04:48:42;;;;;;;36.92;18.35;;;;;;;;;;5001711;28;20173;-42
2022/12/12 04:51:08;;;;;;;32.38;16.08;;;;;;;;;;5001126;28;20218;-41
2022/12/12 04:53:37;;;;;;;33.08;17.60;;;;;;;;;;5001300;28;20181;-41
2022/12/12 04:56:07;;;;;;;37.30;18.70;;;;;;;;;;4995722;28;20307;-44
2022/12/12 04:58:33;;;;;;;35.58;18.83;;;;;;;;;;5004106;28;20164;-42
2022/12/12 05:01:12;;;;;;;44.03;20.48;;;;;;;;;;4998042;28;20180;-42
2022/12/12 05:03:43;;;;;;;33.45;17.67;;;;;;;;;;4996331;28;20176;-42
2022/12/12 05:06:11;;;;;;;40.13;19.75;;;;;;;;;;5003821;28;20208;-42
2022/12/12 05:08:47;;;;;;;36.75;19.10;;;;;;;;;;5001105;28;20256;-42
2022/12/12 05:11:14;;;;;;;43.38;20.33;;;;;;;;;;5002454;28;20235;-42
2022/12/12 05:13:42;;;;;;;38.22;17.48;;;;;;;;;;5001403;28;20604;-42
2022/12/12 05:16:40;;;;;;;36.05;17.50;;;;;;;;;;5001061;28;20267;-43
2022/12/12 05:19:06;;;;;;;35.45;19.13;;;;;;;;;;4981662;28;20181;-42
2022/12/12 05:21:32;;;;;;;35.17;18.70;;;;;;;;;;5000621;28;20662;-42
2022/12/12 05:23:58;;;;;;;36.43;18.00;;;;;;;;;;5005727;28;20188;-42
2022/12/12 05:26:25;;;;;;;40.47;18.07;;;;;;;;;;5002552;28;20446;-42
2022/12/12 05:28:52;;;;;;;41.53;19.48;;;;;;;;;;4997882;28;20503;-41
2022/12/12 05:31:18;;;;;;;34.28;18.60;;;;;;;;;;4998427;28;20177;-41
2022/12/12 05:33:44;;;;;;;41.05;20.33;;;;;;;;;;5001449;28;20180;-42
2022/12/12 05:36:10;;;;;;;39.60;18.98;;;;;;;;;;5003363;28;20199;-43
2022/12/12 05:38:36;;;;;;;39.25;17.88;;;;;;;;;;5000657;28;20260;-43
2022/12/12 05:41:03;;;;;;;39.83;18.75;;;;;;;;;;5002874;28;20667;-42
2022/12/12 05:43:29;;;;;;;35.83;18.88;;;;;;;;;;5001059;28;20183;-42
2022/12/12 05:45:55;;;;;;;38.35;18.20;;;;;;;;;;4991333;28;20594;-43
2022/12/12 05:48:21;;;;;;;33.43;19.50;;;;;;;;;;4990784;28;20186;-42
2022/12/12 05:50:47;;;;;;;44.30;19.97;;;;;;;;;;5004057;28;20503;-42
2022/12/12 05:53:13;;;;;;;38.33;19.70;;;;;;;;;;5002973;28;20413;-42
2022/12/12 05:55:39;;;;;;;39.40;21.60;;;;;;;;;;4999275;28;20522;-42
2022/12/12 05:58:05;;;;;;;37.83;18.50;;;;;;;;;;5000801;28;20425;-42
2022/12/12 06:00:31;;;;;;;39.80;18.53;;;;;;;;;;4999377;28;20490;-43
2022/12/12 06:02:57;;;;;;;36.23;19.00;;;;;;;;;;4999831;28;20412;-42
2022/12/12 06:05:23;;;;;;;34.77;18.50;;;;;;;;;;5002991;28;20459;-42
2022/12/12 06:07:49;;;;;;;37.20;19.67;;;;;;;;;;4997948;28;20918;-42
2022/12/12 06:10:15;;;;;;;42.87;18.63;;;;;;;;;;4999580;28;20474;-41
2022/12/12 06:12:41;;;;;;;34.92;18.27;;;;;;;;;;4999545;28;20400;-42
2022/12/12 06:15:07;;;;;;;31.57;15.93;;;;;;;;;;4999422;28;20197;-42
2022/12/12 06:17:33;;;;;;;38.92;19.50;;;;;;;;;;4999660;28;20412;-41
2022/12/12 06:19:59;;;;;;;38.50;20.17;;;;;;;;;;5004659;28;20619;-42
2022/12/12 06:22:25;;;;;;;40.13;19.57;;;;;;;;;;5002148;28;20444;-41
2022/12/12 06:24:51;;;;;;;33.23;20.07;;;;;;;;;;4996890;28;20420;-42
2022/12/12 06:27:17;;;;;;;41.00;18.83;;;;;;;;;;4997989;28;20416;-42
2022/12/12 06:29:44;;;;;;;36.17;18.17;;;;;;;;;;5000789;28;20442;-41
2022/12/12 06:32:10;;;;;;;32.23;17.40;;;;;;;;;;5003242;28;20264;-40
2022/12/12 06:34:37;;;;;;;32.03;17.90;;;;;;;;;;5000256;28;20456;-41
2022/12/12 06:37:04;;;;;;;41.65;19.60;;;;;;;;;;5003020;28;20957;-42
2022/12/12 06:39:30;;;;;;;38.35;18.85;;;;;;;;;;5000963;28;20295;-42
2022/12/12 06:41:55;;;;;;;36.33;19.85;;;;;;;;;;4995505;28;20219;-42
2022/12/12 06:44:21;;;;;;;32.50;16.90;;;;;;;;;;5003074;28;20641;-41
2022/12/12 06:46:47;;;;;;;38.40;19.70;;;;;;;;;;5000078;28;20803;-42
2022/12/12 06:49:13;;;;;;;31.50;18.20;;;;;;;;;;5002958;28;20808;-42
2022/12/12 06:51:43;;;;;;;36.00;19.43;;;;;;;;;;5003679;28;20410;-42
2022/12/12 06:54:10;;;;;;;41.97;20.60;;;;;;;;;;5004176;28;20405;-43
2022/12/12 06:56:36;;;;;;;39.50;20.08;;;;;;;;;;5003106;28;20231;-42
2022/12/12 06:59:02;;;;;;;48.50;21.33;;;;;;;;;;5003204;28;20211;-41
2022/12/12 07:01:28;;;;;;;42.80;19.93;;;;;;;;;;5007534;28;20196;-41
2022/12/12 07:03:54;;;;;;;39.03;20.40;;;;;;;;;;5002231;28;20415;-42
2022/12/12 07:06:22;;;;;;;35.78;19.02;;;;;;;;;;5002298;28;20929;-42
2022/12/12 07:08:48;;;;;;;41.33;20.02;;;;;;;;;;5003532;28;20173;-42
2022/12/12 07:11:16;;;;;;;37.95;19.33;;;;;;;;;;5003184;28;20654;-42
2022/12/12 07:13:42;;;;;;;44.65;19.60;;;;;;;;;;5004336;28;20188;-43
2022/12/12 07:16:08;;;;;;;33.23;18.20;;;;;;;;;;5006841;28;20208;-43
2022/12/12 07:18:34;;;;;;;34.13;18.53;;;;;;;;;;5006509;28;20411;-43
2022/12/12 07:21:03;;;;;;;30.25;18.15;;;;;;;;;;5000167;28;20426;-44
2022/12/12 07:23:29;;;;;;;40.80;21.42;;;;;;;;;;4999458;28;20208;-43
2022/12/12 07:25:55;;;;;;;47.70;20.10;;;;;;;;;;5005007;28;20232;-44
2022/12/12 07:28:21;;;;;;;39.13;20.53;;;;;;;;;;5005295;28;20407;-44
2022/12/12 07:30:47;;;;;;;41.27;19.87;;;;;;;;;;5003933;28;20420;-45
2022/12/12 07:33:15;;;;;;;40.03;20.10;;;;;;;;;;5004741;28;20416;-43
2022/12/12 07:35:42;;;;;;;44.85;21.30;;;;;;;;;;5004215;28;20744;-43
2022/12/12 07:38:08;;;;;;;36.78;18.77;;;;;;;;;;4999130;28;20180;-43
2022/12/12 07:40:34;;;;;;;34.75;18.40;;;;;;;;;;5000518;28;20204;-43
2022/12/12 07:43:00;;;;;;;45.63;20.47;;;;;;;;;;5005517;28;20196;-43
2022/12/12 07:45:26;;;;;;;43.70;19.50;;;;;;;;;;5002660;28;20929;-43
2022/12/12 07:47:52;;;;;;;42.25;21.52;;;;;;;;;;5004162;28;20408;-43
2022/12/12 07:50:18;;;;;;;41.70;19.97;;;;;;;;;;5002092;28;20630;-43
2022/12/12 07:52:44;;;;;;;39.87;20.40;;;;;;;;;;5002599;28;20486;-43
2022/12/12 07:55:11;;;;;;;38.75;21.60;;;;;;;;;;5001810;28;20468;-43
2022/12/12 07:57:37;;;;;;;40.78;18.48;;;;;;;;;;5007323;28;20613;-43
2022/12/12 08:00:07;;;;;;;41.10;19.55;;;;;;;;;;5001132;28;20179;-43
2022/12/12 08:02:33;;;;;;;38.85;19.27;;;;;;;;;;4999383;28;20184;-43
2022/12/12 08:04:59;;;;;;;44.53;20.47;;;;;;;;;;5002444;28;20192;-43
2022/12/12 08:07:25;;;;;;;37.20;18.67;;;;;;;;;;5001612;28;20404;-43
2022/12/12 08:09:51;;;;;;;35.70;19.00;;;;;;;;;;5003721;28;20922;-44
2022/12/12 08:12:17;;;;;;;43.15;20.23;;;;;;;;;;5005197;28;20420;-43
2022/12/12 08:14:43;;;;;;;36.60;17.50;;;;;;;;;;5005521;28;20207;-43
2022/12/12 08:17:09;;;;;;;35.35;19.33;;;;;;;;;;5000373;28;20187;-43
2022/12/12 08:19:35;;;;;;;37.60;20.57;;;;;;;;;;4997791;28;20177;-43
2022/12/12 08:22:01;;;;;;;41.27;19.13;;;;;;;;;;4996363;28;20407;-43
2022/12/12 08:24:28;;;;;;;42.07;19.70;;;;;;;;;;5003604;28;20435;-43
2022/12/12 08:26:54;;;;;;;41.28;19.92;;;;;;;;;;5003624;28;20427;-44
2022/12/12 08:29:20;;;;;;;36.50;19.80;;;;;;;;;;5002956;28;20263;-44
2022/12/12 08:31:46;;;;;;;47.53;21.35;;;;;;;;;;5003784;28;20415;-43
2022/12/12 08:34:12;;;;;;;37.90;19.80;;;;;;;;;;4999221;28;20204;-44
2022/12/12 08:36:38;;;;;;;36.90;20.35;;;;;;;;;;5003699;28;20208;-44
2022/12/12 08:39:06;;;;;;;41.27;22.57;;;;;;;;;;5003080;28;20545;-43
2022/12/12 08:41:33;;;;;;;43.83;21.05;;;;;;;;;;5001043;28;20418;-44
2022/12/12 08:43:59;;;;;;;42.30;23.00;;;;;;;;;;5003663;28;20168;-43
2022/12/12 08:46:25;;;;;;;39.53;19.50;;;;;;;;;;5000685;28;20212;-44
2022/12/12 08:48:51;;;;;;;50.17;22.58;;;;;;;;;;5002279;28;20477;-43
2022/12/12 08:51:17;;;;;;;43.40;21.40;;;;;;;;;;5000979;28;20647;-44
2022/12/12 08:53:50;;;;;;;40.83;21.70;;;;;;;;;;5006824;28;20450;-43
2022/12/12 08:56:16;;;;;;;43.58;24.48;;;;;;;;;;5002018;28;20224;-44
2022/12/12 08:58:42;;;;;;;44.00;22.38;;;;;;;;;;4998772;28;20180;-43
2022/12/12 09:01:10;;;;;;;36.13;20.92;;;;;;;;;;5000705;28;20766;-43
2022/12/12 09:03:36;;;;;;;47.55;23.70;;;;;;;;;;5000499;28;20580;-43
2022/12/12 09:06:01;;;;;;;39.47;21.70;;;;;;;;;;5003862;28;20231;-44
2022/12/12 09:08:27;;;;;;;43.37;21.23;;;;;;;;;;5002737;28;20421;-44
2022/12/12 09:10:53;;;;;;;39.60;20.97;;;;;;;;;;5000648;28;20452;-43
2022/12/12 09:13:19;;;;;;;37.30;20.50;;;;;;;;;;5000745;28;20498;-43
2022/12/12 09:15:49;;;;;;;38.07;22.80;;;;;;;;;;4996647;28;20467;-43
2022/12/12 09:18:15;;;;;;;38.00;20.85;;;;;;;;;;5002378;28;20423;-43
2022/12/12 09:20:41;;;;;;;40.33;22.13;;;;;;;;;;5001068;28;20199;-44
2022/12/12 09:23:06;;;;;;;40.70;20.87;;;;;;;;;;5003802;28;20434;-43
2022/12/12 09:25:32;;;;;;;38.70;21.23;;;;;;;;;;5000135;28;20439;-44
2022/12/12 09:27:58;;;;;;;32.70;19.80;;;;;;;;;;5002836;28;20412;-43
2022/12/12 09:30:24;;;;;;;37.70;19.58;;;;;;;;;;4999922;28;20412;-44
2022/12/12 09:32:50;;;;;;;31.73;17.40;;;;;;;;;;5001659;28;20234;-44
2022/12/12 09:35:16;;;;;;;33.75;18.15;;;;;;;;;;5003386;28;20483;-45
2022/12/12 09:37:42;;;;;;;38.83;19.60;;;;;;;;;;4999722;28;20260;-45
2022/12/12 09:40:15;;;;;;;33.33;18.50;;;;;;;;;;5001656;28;20395;-44
2022/12/12 09:42:42;;;;;;;35.03;19.30;;;;;;;;;;5000773;28;20944;-44
2022/12/12 09:45:08;;;;;;;32.15;18.92;;;;;;;;;;4996374;28;20631;-44
2022/12/12 09:47:34;;;;;;;43.00;19.60;;;;;;;;;;5002869;28;20208;-44
2022/12/12 09:50:07;;;;;;;35.30;20.30;;;;;;;;;;5001533;28;20215;-43
2022/12/12 09:52:35;;;;;;;33.10;18.42;;;;;;;;;;5003476;28;20403;-44
2022/12/12 09:55:22;;;;;;;31.88;19.65;;;;;;;;;;4987847;28;20204;-43
2022/12/12 09:57:54;;;;;;;30.27;17.42;;;;;;;;;;4996466;28;20195;-44
2022/12/12 10:00:20;;;;;;;26.48;17.08;;;;;;;;;;5003450;28;20191;-45
2022/12/12 10:03:01;;;;;;;29.57;17.70;;;;;;;;;;5002166;28;20189;-43
2022/12/12 10:05:56;;;;;;;25.30;16.20;;;;;;;;;;5004213;28;20440;-44
2022/12/12 10:08:42;;;;;;;30.33;17.63;;;;;;;;;;4994578;28;20427;-45
2022/12/12 10:11:48;;;;;;;29.90;17.70;;;;;;;;;;4991670;28;20417;-44
2022/12/12 10:13:59;;;;;;;35.30;18.70;;;;;;;;;;5002525;28;20432;-46
2022/12/12 10:16:25;;;;;;;29.50;18.47;;;;;;;;;;5001829;28;20527;-46
2022/12/12 10:18:52;;;;;;;33.13;19.13;;;;;;;;;;5003387;28;20964;-44
2022/12/12 10:21:21;;;;;;;31.07;18.20;;;;;;;;;;4997568;28;20412;-44
2022/12/12 10:23:56;;;;;;;28.57;17.37;;;;;;;;;;5003540;28;20426;-43
2022/12/12 10:26:30;;;;;;;30.43;19.07;;;;;;;;;;5003063;28;20440;-44
2022/12/12 10:29:02;;;;;;;27.53;18.27;;;;;;;;;;5004392;28;20431;-45
2022/12/12 10:31:37;;;;;;;31.37;18.23;;;;;;;;;;5005184;28;20501;-45
2022/12/12 10:34:09;;;;;;;33.67;19.07;;;;;;;;;;4996430;28;20766;-45
2022/12/12 10:36:38;;;;;;;30.60;17.93;;;;;;;;;;4999860;28;20474;-45
2022/12/12 10:39:13;;;;;;;29.80;18.50;;;;;;;;;;4997221;28;20411;-45
2022/12/12 10:42:08;;;;;;;33.87;17.93;;;;;;;;;;4996837;28;20403;-45
2022/12/12 10:44:37;;;;;;;26.43;17.37;;;;;;;;;;4995228;28;20424;-43
2022/12/12 10:47:04;;;;;;;28.43;17.30;;;;;;;;;;4996177;28;20506;-43
2022/12/12 10:49:30;;;;;;;31.13;17.57;;;;;;;;;;4995761;28;20491;-44
2022/12/12 10:51:57;;;;;;;31.47;18.00;;;;;;;;;;4995388;28;20412;-44
2022/12/12 10:54:26;;;;;;;21.47;15.70;;;;;;;;;;4995427;28;20416;-43
2022/12/12 10:57:12;;;;;;;38.37;28.67;;;;;;;;;;4995502;28;20455;-44
2022/12/12 10:59:44;;;;;;;28.30;17.70;;;;;;;;;;4994950;28;20409;-43
2022/12/12 11:02:22;;;;;;;28.07;15.57;;;;;;;;;;4995065;28;20408;-43
2022/12/12 11:04:48;;;;;;;26.00;17.47;;;;;;;;;;4995081;28;20900;-44
2022/12/12 11:07:20;;;;;;;30.23;16.40;;;;;;;;;;4994815;28;20867;-44
2022/12/12 11:09:46;;;;;;;25.77;17.47;;;;;;;;;;4994963;28;20827;-44
2022/12/12 11:12:13;;;;;;;25.33;16.40;;;;;;;;;;4994792;28;20775;-44
2022/12/12 11:14:47;;;;;;;28.10;17.30;;;;;;;;;;4994583;28;20404;-44
2022/12/12 11:17:22;;;;;;;23.83;16.23;;;;;;;;;;4994755;28;20466;-45
2022/12/12 11:19:48;;;;;;;28.43;18.10;;;;;;;;;;4994857;28;20512;-44
2022/12/12 11:22:15;;;;;;;28.03;17.13;;;;;;;;;;4995085;28;20491;-44
2022/12/12 11:24:45;;;;;;;26.93;17.10;;;;;;;;;;4994658;28;20407;-45
2022/12/12 11:27:19;;;;;;;28.17;17.60;;;;;;;;;;4994453;28;20427;-44
2022/12/12 11:29:47;;;;;;;27.50;18.00;;;;;;;;;;4994883;28;20937;-44
2022/12/12 11:32:16;;;;;;;25.90;17.30;;;;;;;;;;4994484;28;20447;-44
2022/12/12 11:34:44;;;;;;;24.70;16.73;;;;;;;;;;4992444;28;20522;-44
2022/12/12 11:37:14;;;;;;;28.90;18.40;;;;;;;;;;4984818;28;20409;-44
2022/12/12 11:39:43;;;;;;;27.13;16.57;;;;;;;;;;4996294;28;20416;-44
2022/12/12 11:42:12;;;;;;;26.23;17.07;;;;;;;;;;4993156;28;20443;-43
2022/12/12 11:44:38;;;;;;;24.73;17.00;;;;;;;;;;4993919;28;20496;-43
2022/12/12 11:47:21;;;;;;;21.63;16.30;;;;;;;;;;5000216;28;20454;-44
2022/12/12 11:49:48;;;;;;;24.73;16.00;;;;;;;;;;4989718;28;20443;-44
2022/12/12 11:52:33;;;;;;;26.80;16.93;;;;;;;;;;4992269;28;20859;-44
2022/12/12 11:54:59;;;;;;;26.27;16.60;;;;;;;;;;4991712;28;20466;-45
2022/12/12 11:57:44;;;;;;;27.20;16.40;;;;;;;;;;4993933;28;21169;-44
2022/12/12 12:00:16;;;;;;;22.37;16.20;;;;;;;;;;4993359;28;20546;-44
2022/12/12 12:02:55;;;;;;;21.47;16.20;;;;;;;;;;4992899;28;20421;-44
2022/12/12 12:05:31;;;;;;;23.20;15.90;;;;;;;;;;4992710;28;20434;-43
2022/12/12 12:08:00;;;;;;;23.50;15.30;;;;;;;;;;4993406;28;20475;-44
2022/12/12 12:10:48;;;;;;;29.47;15.40;;;;;;;;;;4992692;28;20423;-44
2022/12/12 12:13:29;;;;;;;28.20;15.77;;;;;;;;;;4993396;28;20420;-45
2022/12/12 12:16:03;;;;;;;22.87;14.57;;;;;;;;;;4993696;28;20467;-43
2022/12/12 12:18:39;;;;;;;21.93;14.50;;;;;;;;;;4994021;28;20408;-44
2022/12/12 12:21:23;;;;;;;17.90;12.10;;;;;;;;;;4993498;28;20411;-43
2022/12/12 12:23:54;;;;;;;21.23;12.77;;;;;;;;;;4994122;28;20412;-44
2022/12/12 12:26:34;;;;;;;23.63;13.30;;;;;;;;;;4992146;28;20816;-43
2022/12/12 12:29:09;;;;;;;18.87;12.87;;;;;;;;;;4991945;28;20446;-43
2022/12/12 12:31:57;;;;;;;22.33;12.50;;;;;;;;;;4993712;28;20855;-43
2022/12/12 12:34:26;;;;;;;24.73;13.07;;;;;;;;;;4991756;28;20423;-44
2022/12/12 12:36:59;;;;;;;15.83;11.03;;;;;;;;;;4991449;28;21035;-43
2022/12/12 12:39:28;;;;;;;20.27;11.50;;;;;;;;;;4993307;28;20404;-44
2022/12/12 12:42:03;;;;;;;17.83;11.63;;;;;;;;;;4992022;28;20452;-44
2022/12/12 12:44:48;;;;;;;19.10;12.33;;;;;;;;;;4975655;28;20417;-44
2022/12/12 12:47:31;;;;;;;20.03;12.23;;;;;;;;;;4993672;28;20416;-42
2022/12/12 12:50:01;;;;;;;17.77;11.93;;;;;;;;;;4993691;28;20451;-44
2022/12/12 12:52:31;;;;;;;22.23;11.80;;;;;;;;;;4993883;28;20901;-44
2022/12/12 12:54:59;;;;;;;18.07;12.60;;;;;;;;;;4993816;28;20548;-44
2022/12/12 12:57:33;;;;;;;20.17;12.20;;;;;;;;;;4994013;28;20434;-43
2022/12/12 13:00:03;;;;;;;23.87;13.50;;;;;;;;;;4993845;28;20417;-43
2022/12/12 13:02:47;;;;;;;23.70;13.27;;;;;;;;;;4994004;28;20514;-43
2022/12/12 13:05:20;;;;;;;22.43;11.90;;;;;;;;;;4994333;28;20858;-44
2022/12/12 13:07:49;;;;;;;20.47;12.83;;;;;;;;;;4993637;28;20435;-44
2022/12/12 13:10:26;;;;;;;27.43;13.70;;;;;;;;;;4993928;28;20402;-45
2022/12/12 13:12:52;;;;;;;18.10;12.77;;;;;;;;;;4993874;28;20507;-44
2022/12/12 13:15:26;;;;;;;22.67;13.70;;;;;;;;;;4993474;28;20591;-44
2022/12/12 13:17:55;;;;;;;21.73;12.80;;;;;;;;;;4994620;28;20639;-44
2022/12/12 13:20:22;;;;;;;23.23;15.33;;;;;;;;;;4993739;28;20728;-44
2022/12/12 13:22:53;;;;;;;24.52;13.52;;;;;;;;;;4993762;28;20417;-44
2022/12/12 13:25:27;;;;;;;26.33;12.50;;;;;;;;;;4994034;28;20201;-43
2022/12/12 13:27:53;;;;;;;26.27;13.98;;;;;;;;;;4993136;28;20417;-44
2022/12/12 13:30:40;;;;;;;22.45;13.38;;;;;;;;;;4993457;28;20185;-44
2022/12/12 13:33:17;;;;;;;23.63;14.13;;;;;;;;;;4993428;28;20184;-44
2022/12/12 13:35:45;;;;;;;25.02;15.00;;;;;;;;;;4993034;28;20686;-44
2022/12/12 13:38:18;;;;;;;23.40;13.48;;;;;;;;;;4992731;28;20168;-43
2022/12/12 13:40:45;;;;;;;23.58;14.38;;;;;;;;;;4993038;28;20261;-43
2022/12/12 13:43:27;;;;;;;25.05;13.93;;;;;;;;;;4993430;28;20173;-45
2022/12/12 13:45:53;;;;;;;21.50;12.87;;;;;;;;;;4993439;28;20562;-44
2022/12/12 13:48:26;;;;;;;25.85;14.52;;;;;;;;;;4992973;28;20420;-43
2022/12/12 13:51:10;;;;;;;21.50;12.90;;;;;;;;;;4993004;28;20183;-44
2022/12/12 13:53:36;;;;;;;20.77;13.70;;;;;;;;;;4993045;28;20427;-44
2022/12/12 13:56:20;;;;;;;21.43;12.83;;;;;;;;;;4992350;28;20560;-44
2022/12/12 13:58:46;;;;;;;17.73;11.93;;;;;;;;;;4993009;28;20418;-43
2022/12/12 14:01:33;;;;;;;16.43;10.87;;;;;;;;;;4996611;28;20416;-44
2022/12/12 14:03:59;;;;;;;26.92;11.30;;;;;;;;;;4996452;28;20412;-44
2022/12/12 14:06:28;;;;;;;15.85;11.13;;;;;;;;;;4995385;28;20295;-44
2022/12/12 14:08:54;;;;;;;15.23;10.87;;;;;;;;;;5011459;28;20177;-43
2022/12/12 14:11:28;;;;;;;14.97;11.20;;;;;;;;;;5008241;28;20979;-44
2022/12/12 14:14:08;;;;;;;16.17;10.35;;;;;;;;;;5005676;28;20920;-43
2022/12/12 14:16:34;;;;;;;15.57;10.20;;;;;;;;;;5001150;28;20208;-44
2022/12/12 14:19:05;;;;;;;16.25;10.75;;;;;;;;;;4993032;28;20219;-44
2022/12/12 14:21:39;;;;;;;19.52;11.45;;;;;;;;;;5011716;28;20223;-44
2022/12/12 14:24:24;;;;;;;17.13;10.68;;;;;;;;;;5001232;28;20243;-44
2022/12/12 14:26:50;;;;;;;23.95;18.17;;;;;;;;;;4999762;28;20781;-45
2022/12/12 14:29:16;;;;;;;32.03;19.53;;;;;;;;;;5007431;28;20188;-43
2022/12/12 14:32:05;;;;;;;21.27;10.90;;;;;;;;;;5004945;28;20488;-43
2022/12/12 14:34:34;;;;;;;20.50;12.35;;;;;;;;;;5004586;28;20435;-43
2022/12/12 14:37:13;;;;;;;14.75;9.85;;;;;;;;;;4994277;28;20263;-43
2022/12/12 14:39:50;;;;;;;16.77;11.43;;;;;;;;;;4996110;28;20176;-45
2022/12/12 14:42:26;;;;;;;18.23;11.52;;;;;;;;;;4995843;28;20168;-45
2022/12/12 14:44:53;;;;;;;20.38;10.95;;;;;;;;;;4995746;28;20200;-43
2022/12/12 14:47:19;;;;;;;14.75;11.35;;;;;;;;;;4995761;28;20216;-44
2022/12/12 14:49:45;;;;;;;15.30;11.20;;;;;;;;;;4996198;28;20191;-43